sensor_id;sensor_type;location;lat;lon;timestamp;pressure;altitude;pressure_sealevel;temperature;humidity
8641;BME280;4358;42.100;25.222;2022-10-04T00:01:50;100123.19;;;13.48;100.00
8641;BME280;4358;42.100;25.222;2022-10-04T00:04:22;100116.41;;;13.44;100.00
8641;BME280;4358;42.100;25.222;2022-10-04T00:06:55;100123.41;;;13.45;100.00
8641;BME280;4358;42.100;25.222;2022-10-04T00:09:25;100116.41;;;13.44;100.00
8641;BME280;4358;42.100;25.222;2022-10-04T00:11:55;100120.25;;;13.40;100.00
8641;BME280;4358;42.100;25.222;2022-10-04T00:14:25;100120.47;;;13.37;100.00
8641;BME280;4358;42.100;25.222;2022-10-04T00:16:54;100123.16;;;13.37;100.00
8641;BME280;4358;42.100;25.222;2022-10-04T00:19:38;100124.09;;;13.36;100.00
8641;BME280;4358;42.100;25.222;2022-10-04T00:22:19;100121.91;;;13.30;100.00
8641;BME280;4358;42.100;25.222;2022-10-04T00:25:19;100108.31;;;13.22;100.00
8641;BME280;4358;42.100;25.222;2022-10-04T00:33:57;100114.69;;;13.20;100.00
8641;BME280;4358;42.100;25.222;2022-10-04T00:36:45;100122.31;;;13.13;100.00
8641;BME280;4358;42.100;25.222;2022-10-04T00:39:17;100117.00;;;13.13;100.00
8641;BME280;4358;42.100;25.222;2022-10-04T00:42:01;100119.94;;;13.08;100.00
8641;BME280;4358;42.100;25.222;2022-10-04T00:44:36;100105.66;;;13.09;100.00
8641;BME280;4358;42.100;25.222;2022-10-04T00:47:16;100101.75;;;13.02;100.00
8641;BME280;4358;42.100;25.222;2022-10-04T00:49:48;100103.41;;;12.92;100.00
8641;BME280;4358;42.100;25.222;2022-10-04T00:52:22;100097.25;;;12.79;100.00
8641;BME280;4358;42.100;25.222;2022-10-04T00:54:54;100099.31;;;12.76;100.00
8641;BME280;4358;42.100;25.222;2022-10-04T00:57:25;100088.06;;;12.59;100.00
8641;BME280;4358;42.100;25.222;2022-10-04T00:59:55;100098.19;;;12.54;100.00
8641;BME280;4358;42.100;25.222;2022-10-04T01:02:26;100092.44;;;12.60;100.00
8641;BME280;4358;42.100;25.222;2022-10-04T01:04:58;100095.09;;;12.60;100.00
8641;BME280;4358;42.100;25.222;2022-10-04T01:07:29;100090.72;;;12.59;100.00
8641;BME280;4358;42.100;25.222;2022-10-04T01:10:01;100091.13;;;12.66;100.00
8641;BME280;4358;42.100;25.222;2022-10-04T01:12:39;100096.06;;;12.59;100.00
8641;BME280;4358;42.100;25.222;2022-10-04T01:15:13;100103.81;;;12.62;100.00
8641;BME280;4358;42.100;25.222;2022-10-04T01:18:06;100106.25;;;12.65;100.00
8641;BME280;4358;42.100;25.222;2022-10-04T01:20:35;100097.53;;;12.63;100.00
8641;BME280;4358;42.100;25.222;2022-10-04T01:23:04;100104.75;;;12.61;100.00
8641;BME280;4358;42.100;25.222;2022-10-04T01:25:46;100110.56;;;12.55;100.00
8641;BME280;4358;42.100;25.222;2022-10-04T01:28:13;100096.72;;;12.50;100.00
8641;BME280;4358;42.100;25.222;2022-10-04T01:30:40;100104.19;;;12.45;100.00
8641;BME280;4358;42.100;25.222;2022-10-04T01:33:07;100105.34;;;12.41;100.00
8641;BME280;4358;42.100;25.222;2022-10-04T01:35:34;100115.78;;;12.31;100.00
8641;BME280;4358;42.100;25.222;2022-10-04T01:38:04;100116.03;;;12.28;100.00
8641;BME280;4358;42.100;25.222;2022-10-04T01:40:32;100093.25;;;12.12;100.00
8641;BME280;4358;42.100;25.222;2022-10-04T01:43:03;100111.22;;;12.21;100.00
8641;BME280;4358;42.100;25.222;2022-10-04T01:45:34;100120.16;;;12.20;100.00
8641;BME280;4358;42.100;25.222;2022-10-04T01:48:07;100115.06;;;12.17;100.00
8641;BME280;4358;42.100;25.222;2022-10-04T01:50:38;100104.75;;;12.00;100.00
8641;BME280;4358;42.100;25.222;2022-10-04T01:53:13;100121.22;;;12.05;100.00
8641;BME280;4358;42.100;25.222;2022-10-04T01:55:44;100124.44;;;11.97;100.00
8641;BME280;4358;42.100;25.222;2022-10-04T01:58:15;100127.19;;;11.96;100.00
8641;BME280;4358;42.100;25.222;2022-10-04T02:00:47;100120.19;;;11.95;100.00
8641;BME280;4358;42.100;25.222;2022-10-04T02:03:17;100125.72;;;11.92;100.00
8641;BME280;4358;42.100;25.222;2022-10-04T02:05:50;100121.66;;;11.86;100.00
8641;BME280;4358;42.100;25.222;2022-10-04T02:08:24;100125.91;;;11.88;100.00
8641;BME280;4358;42.100;25.222;2022-10-04T02:10:52;100128.56;;;11.88;100.00
8641;BME280;4358;42.100;25.222;2022-10-04T02:13:21;100136.78;;;11.85;100.00
8641;BME280;4358;42.100;25.222;2022-10-04T02:15:52;100133.56;;;11.80;100.00
8641;BME280;4358;42.100;25.222;2022-10-04T02:18:20;100129.91;;;11.69;100.00
8641;BME280;4358;42.100;25.222;2022-10-04T02:20:49;100135.84;;;11.72;100.00
8641;BME280;4358;42.100;25.222;2022-10-04T02:23:19;100132.47;;;11.70;100.00
8641;BME280;4358;42.100;25.222;2022-10-04T02:25:47;100128.88;;;11.71;100.00
8641;BME280;4358;42.100;25.222;2022-10-04T02:28:14;100131.94;;;11.65;100.00
8641;BME280;4358;42.100;25.222;2022-10-04T02:30:46;100129.06;;;11.68;100.00
8641;BME280;4358;42.100;25.222;2022-10-04T02:33:38;100123.88;;;11.79;100.00
8641;BME280;4358;42.100;25.222;2022-10-04T02:36:06;100134.66;;;11.91;100.00
8641;BME280;4358;42.100;25.222;2022-10-04T02:38:40;100145.41;;;12.02;100.00
8641;BME280;4358;42.100;25.222;2022-10-04T02:41:12;100138.59;;;12.10;100.00
8641;BME280;4358;42.100;25.222;2022-10-04T02:43:49;100150.84;;;12.13;100.00
8641;BME280;4358;42.100;25.222;2022-10-04T02:46:20;100130.41;;;12.01;100.00
8641;BME280;4358;42.100;25.222;2022-10-04T02:48:51;100149.78;;;12.03;100.00
8641;BME280;4358;42.100;25.222;2022-10-04T02:51:23;100149.97;;;12.00;100.00
8641;BME280;4358;42.100;25.222;2022-10-04T02:54:04;100157.22;;;11.98;100.00
8641;BME280;4358;42.100;25.222;2022-10-04T02:56:32;100156.38;;;11.97;100.00
8641;BME280;4358;42.100;25.222;2022-10-04T02:59:00;100156.47;;;11.96;100.00
8641;BME280;4358;42.100;25.222;2022-10-04T03:01:39;100164.66;;;11.93;100.00
8641;BME280;4358;42.100;25.222;2022-10-04T03:04:10;100158.81;;;11.87;100.00
8641;BME280;4358;42.100;25.222;2022-10-04T03:06:38;100161.47;;;11.87;100.00
8641;BME280;4358;42.100;25.222;2022-10-04T03:09:06;100164.41;;;11.83;100.00
8641;BME280;4358;42.100;25.222;2022-10-04T03:11:35;100164.78;;;11.64;100.00
8641;BME280;4358;42.100;25.222;2022-10-04T03:14:08;100157.44;;;11.68;100.00
8641;BME280;4358;42.100;25.222;2022-10-04T03:16:36;100168.50;;;11.62;100.00
8641;BME280;4358;42.100;25.222;2022-10-04T03:19:05;100163.94;;;11.64;100.00
8641;BME280;4358;42.100;25.222;2022-10-04T03:21:34;100163.28;;;11.60;100.00
8641;BME280;4358;42.100;25.222;2022-10-04T03:24:03;100164.38;;;11.70;100.00
8641;BME280;4358;42.100;25.222;2022-10-04T03:26:35;100158.91;;;11.86;100.00
8641;BME280;4358;42.100;25.222;2022-10-04T03:29:05;100171.06;;;12.03;100.00
8641;BME280;4358;42.100;25.222;2022-10-04T03:31:38;100160.41;;;12.03;100.00
8641;BME280;4358;42.100;25.222;2022-10-04T03:34:12;100168.19;;;12.18;100.00
8641;BME280;4358;42.100;25.222;2022-10-04T03:36:40;100177.75;;;12.21;100.00
8641;BME280;4358;42.100;25.222;2022-10-04T03:39:09;100175.63;;;12.26;100.00
8641;BME280;4358;42.100;25.222;2022-10-04T03:41:38;100182.75;;;12.25;100.00
8641;BME280;4358;42.100;25.222;2022-10-04T03:44:07;100186.25;;;12.26;100.00
8641;BME280;4358;42.100;25.222;2022-10-04T03:46:39;100195.09;;;12.26;100.00
8641;BME280;4358;42.100;25.222;2022-10-04T03:49:07;100194.47;;;12.23;100.00
8641;BME280;4358;42.100;25.222;2022-10-04T03:51:34;100205.97;;;12.23;100.00
8641;BME280;4358;42.100;25.222;2022-10-04T03:54:01;100204.78;;;12.15;100.00
8641;BME280;4358;42.100;25.222;2022-10-04T03:56:33;100210.41;;;11.98;100.00
8641;BME280;4358;42.100;25.222;2022-10-04T03:59:03;100206.47;;;11.64;100.00
8641;BME280;4358;42.100;25.222;2022-10-04T04:01:36;100207.63;;;11.33;100.00
8641;BME280;4358;42.100;25.222;2022-10-04T04:04:12;100211.22;;;11.32;100.00
8641;BME280;4358;42.100;25.222;2022-10-04T04:06:47;100217.19;;;11.09;100.00
8641;BME280;4358;42.100;25.222;2022-10-04T04:09:21;100218.25;;;10.92;100.00
8641;BME280;4358;42.100;25.222;2022-10-04T04:11:49;100227.66;;;10.97;100.00
8641;BME280;4358;42.100;25.222;2022-10-04T04:14:23;100229.75;;;10.92;100.00
8641;BME280;4358;42.100;25.222;2022-10-04T04:16:51;100219.28;;;10.89;100.00
8641;BME280;4358;42.100;25.222;2022-10-04T04:19:21;100223.31;;;10.82;100.00
8641;BME280;4358;42.100;25.222;2022-10-04T04:21:50;100227.28;;;10.75;100.00
8641;BME280;4358;42.100;25.222;2022-10-04T04:24:23;100232.59;;;10.75;100.00
8641;BME280;4358;42.100;25.222;2022-10-04T04:26:55;100234.69;;;10.70;100.00
8641;BME280;4358;42.100;25.222;2022-10-04T04:29:31;100225.41;;;10.77;100.00
8641;BME280;4358;42.100;25.222;2022-10-04T04:32:00;100228.41;;;10.85;100.00
8641;BME280;4358;42.100;25.222;2022-10-04T04:34:31;100234.00;;;10.95;100.00
8641;BME280;4358;42.100;25.222;2022-10-04T04:36:59;100228.13;;;11.04;100.00
8641;BME280;4358;42.100;25.222;2022-10-04T04:39:28;100238.75;;;11.04;100.00
8641;BME280;4358;42.100;25.222;2022-10-04T04:42:05;100226.09;;;11.08;100.00
8641;BME280;4358;42.100;25.222;2022-10-04T04:44:39;100232.94;;;11.12;100.00
8641;BME280;4358;42.100;25.222;2022-10-04T04:47:21;100243.06;;;11.19;100.00
8641;BME280;4358;42.100;25.222;2022-10-04T04:49:52;100243.34;;;11.29;100.00
8641;BME280;4358;42.100;25.222;2022-10-04T04:52:21;100258.47;;;11.41;100.00
8641;BME280;4358;42.100;25.222;2022-10-04T04:54:50;100229.81;;;11.46;100.00
8641;BME280;4358;42.100;25.222;2022-10-04T04:57:17;100247.06;;;11.80;100.00
8641;BME280;4358;42.100;25.222;2022-10-04T04:59:47;100249.59;;;12.21;100.00
8641;BME280;4358;42.100;25.222;2022-10-04T05:02:30;100253.03;;;12.48;100.00
8641;BME280;4358;42.100;25.222;2022-10-04T05:05:15;100255.16;;;12.68;100.00
8641;BME280;4358;42.100;25.222;2022-10-04T05:07:42;100255.78;;;12.85;100.00
8641;BME280;4358;42.100;25.222;2022-10-04T05:10:20;100254.91;;;12.97;100.00
8641;BME280;4358;42.100;25.222;2022-10-04T05:12:48;100250.41;;;13.10;100.00
8641;BME280;4358;42.100;25.222;2022-10-04T05:15:16;100258.50;;;13.21;100.00
8641;BME280;4358;42.100;25.222;2022-10-04T05:17:43;100259.78;;;13.28;100.00
8641;BME280;4358;42.100;25.222;2022-10-04T05:20:12;100269.34;;;13.31;100.00
8641;BME280;4358;42.100;25.222;2022-10-04T05:22:44;100256.16;;;13.29;100.00
8641;BME280;4358;42.100;25.222;2022-10-04T05:25:16;100269.84;;;13.48;100.00
8641;BME280;4358;42.100;25.222;2022-10-04T05:27:46;100277.16;;;13.57;100.00
8641;BME280;4358;42.100;25.222;2022-10-04T05:30:30;100273.09;;;13.65;100.00
8641;BME280;4358;42.100;25.222;2022-10-04T05:33:04;100275.06;;;13.74;100.00
8641;BME280;4358;42.100;25.222;2022-10-04T05:35:41;100280.69;;;13.82;100.00
8641;BME280;4358;42.100;25.222;2022-10-04T05:38:18;100281.94;;;13.89;100.00
8641;BME280;4358;42.100;25.222;2022-10-04T05:40:56;100292.31;;;14.05;100.00
8641;BME280;4358;42.100;25.222;2022-10-04T05:43:31;100287.38;;;14.11;100.00
8641;BME280;4358;42.100;25.222;2022-10-04T05:46:20;100289.44;;;14.19;100.00
8641;BME280;4358;42.100;25.222;2022-10-04T05:48:52;100291.78;;;14.23;100.00
8641;BME280;4358;42.100;25.222;2022-10-04T05:51:22;100297.50;;;14.30;100.00
8641;BME280;4358;42.100;25.222;2022-10-04T05:53:49;100295.75;;;14.41;100.00
8641;BME280;4358;42.100;25.222;2022-10-04T05:59:43;100294.56;;;14.57;100.00
8641;BME280;4358;42.100;25.222;2022-10-04T06:02:24;100312.78;;;14.63;100.00
8641;BME280;4358;42.100;25.222;2022-10-04T06:05:04;100309.88;;;14.66;100.00
8641;BME280;4358;42.100;25.222;2022-10-04T06:07:40;100317.19;;;14.75;99.47
8641;BME280;4358;42.100;25.222;2022-10-04T06:10:23;100322.56;;;14.86;98.83
8641;BME280;4358;42.100;25.222;2022-10-04T06:12:55;100329.09;;;14.93;97.89
8641;BME280;4358;42.100;25.222;2022-10-04T06:15:52;100342.22;;;15.07;97.10
8641;BME280;4358;42.100;25.222;2022-10-04T06:18:31;100334.22;;;15.18;95.93
8641;BME280;4358;42.100;25.222;2022-10-04T06:21:14;100336.19;;;15.27;95.23
8641;BME280;4358;42.100;25.222;2022-10-04T06:23:47;100348.56;;;15.40;94.61
8641;BME280;4358;42.100;25.222;2022-10-04T06:26:19;100340.66;;;15.49;93.47
8641;BME280;4358;42.100;25.222;2022-10-04T06:28:49;100359.38;;;15.49;93.17
8641;BME280;4358;42.100;25.222;2022-10-04T06:31:54;100338.50;;;15.43;94.40
8641;BME280;4358;42.100;25.222;2022-10-04T06:37:30;100355.63;;;15.63;93.71
8641;BME280;4358;42.100;25.222;2022-10-04T06:40:28;100347.63;;;15.63;92.96
8641;BME280;4358;42.100;25.222;2022-10-04T06:43:09;100349.53;;;15.72;91.98
8641;BME280;4358;42.100;25.222;2022-10-04T06:45:50;100309.41;;;15.61;92.05
8641;BME280;4358;42.100;25.222;2022-10-04T06:48:41;100339.19;;;15.79;90.56
8641;BME280;4358;42.100;25.222;2022-10-04T06:51:22;100349.25;;;15.86;90.01
8641;BME280;4358;42.100;25.222;2022-10-04T06:54:01;100344.16;;;15.83;88.98
8641;BME280;4358;42.100;25.222;2022-10-04T06:56:44;100360.97;;;15.85;89.73
8641;BME280;4358;42.100;25.222;2022-10-04T06:59:34;100345.59;;;15.87;89.60
8641;BME280;4358;42.100;25.222;2022-10-04T07:02:13;100359.34;;;15.94;89.06
8641;BME280;4358;42.100;25.222;2022-10-04T07:04:47;100356.88;;;16.02;89.78
8641;BME280;4358;42.100;25.222;2022-10-04T07:07:22;100383.75;;;16.12;88.00
8641;BME280;4358;42.100;25.222;2022-10-04T07:09:54;100365.50;;;16.17;88.05
8641;BME280;4358;42.100;25.222;2022-10-04T07:12:22;100365.50;;;16.17;87.99
8641;BME280;4358;42.100;25.222;2022-10-04T07:14:52;100357.94;;;16.22;87.28
8641;BME280;4358;42.100;25.222;2022-10-04T07:17:23;100364.38;;;16.19;87.56
8641;BME280;4358;42.100;25.222;2022-10-04T07:19:53;100365.56;;;16.26;86.73
8641;BME280;4358;42.100;25.222;2022-10-04T07:22:27;100366.44;;;16.27;86.97
8641;BME280;4358;42.100;25.222;2022-10-04T07:25:11;100365.66;;;16.36;86.11
8641;BME280;4358;42.100;25.222;2022-10-04T07:27:48;100362.31;;;16.43;86.45
8641;BME280;4358;42.100;25.222;2022-10-04T07:30:42;100366.47;;;16.47;84.90
8641;BME280;4358;42.100;25.222;2022-10-04T07:33:14;100379.47;;;16.52;84.93
8641;BME280;4358;42.100;25.222;2022-10-04T07:35:45;100387.00;;;16.58;83.71
8641;BME280;4358;42.100;25.222;2022-10-04T07:38:19;100381.16;;;16.64;83.36
8641;BME280;4358;42.100;25.222;2022-10-04T07:41:02;100385.50;;;16.65;82.79
8641;BME280;4358;42.100;25.222;2022-10-04T07:43:37;100369.81;;;16.81;82.13
8641;BME280;4358;42.100;25.222;2022-10-04T07:46:13;100383.03;;;16.94;80.56
8641;BME280;4358;42.100;25.222;2022-10-04T07:48:43;100367.28;;;17.01;80.92
8641;BME280;4358;42.100;25.222;2022-10-04T07:51:18;100370.47;;;17.15;78.83
8641;BME280;4358;42.100;25.222;2022-10-04T07:53:54;100385.44;;;17.18;77.38
8641;BME280;4358;42.100;25.222;2022-10-04T07:56:26;100359.75;;;17.15;77.53
8641;BME280;4358;42.100;25.222;2022-10-04T07:59:16;100378.72;;;17.33;78.27
8641;BME280;4358;42.100;25.222;2022-10-04T08:01:52;100368.88;;;17.43;76.67
8641;BME280;4358;42.100;25.222;2022-10-04T08:04:35;100365.94;;;17.46;76.94
8641;BME280;4358;42.100;25.222;2022-10-04T08:07:14;100374.97;;;17.45;75.71
8641;BME280;4358;42.100;25.222;2022-10-04T08:09:56;100372.56;;;17.42;77.06
8641;BME280;4358;42.100;25.222;2022-10-04T08:12:33;100370.34;;;17.47;76.42
8641;BME280;4358;42.100;25.222;2022-10-04T08:15:35;100364.44;;;17.53;75.24
8641;BME280;4358;42.100;25.222;2022-10-04T08:18:10;100372.66;;;17.61;75.05
8641;BME280;4358;42.100;25.222;2022-10-04T08:20:47;100370.13;;;17.69;75.84
8641;BME280;4358;42.100;25.222;2022-10-04T08:23:34;100371.75;;;17.91;74.84
8641;BME280;4358;42.100;25.222;2022-10-04T08:26:13;100378.97;;;17.91;74.27
8641;BME280;4358;42.100;25.222;2022-10-04T08:28:47;100382.69;;;18.09;74.31
8641;BME280;4358;42.100;25.222;2022-10-04T08:31:51;100379.44;;;18.15;73.63
8641;BME280;4358;42.100;25.222;2022-10-04T08:34:31;100379.59;;;18.23;73.48
8641;BME280;4358;42.100;25.222;2022-10-04T08:37:15;100388.91;;;18.19;71.94
8641;BME280;4358;42.100;25.222;2022-10-04T08:40:07;100382.13;;;18.34;71.96
8641;BME280;4358;42.100;25.222;2022-10-04T08:43:18;100380.47;;;18.52;71.66
8641;BME280;4358;42.100;25.222;2022-10-04T08:49:32;100390.09;;;18.84;69.14
8641;BME280;4358;42.100;25.222;2022-10-04T08:52:45;100379.91;;;18.78;69.74
8641;BME280;4358;42.100;25.222;2022-10-04T08:55:37;100378.72;;;18.90;68.10
8641;BME280;4358;42.100;25.222;2022-10-04T08:58:39;100369.94;;;19.07;68.35
8641;BME280;4358;42.100;25.222;2022-10-04T09:01:27;100375.88;;;19.01;67.02
8641;BME280;4358;42.100;25.222;2022-10-04T09:07:15;100396.06;;;19.34;63.51
8641;BME280;4358;42.100;25.222;2022-10-04T09:10:10;100382.31;;;19.27;64.97
8641;BME280;4358;42.100;25.222;2022-10-04T09:12:55;100381.84;;;19.04;64.26
8641;BME280;4358;42.100;25.222;2022-10-04T09:15:42;100401.00;;;18.82;62.78
8641;BME280;4358;42.100;25.222;2022-10-04T09:18:45;100398.72;;;18.58;61.46
8641;BME280;4358;42.100;25.222;2022-10-04T09:21:25;100390.06;;;18.45;61.58
8641;BME280;4358;42.100;25.222;2022-10-04T09:24:25;100384.41;;;18.87;61.89
8641;BME280;4358;42.100;25.222;2022-10-04T09:27:09;100383.34;;;19.17;60.37
8641;BME280;4358;42.100;25.222;2022-10-04T09:29:56;100407.19;;;19.02;59.19
8641;BME280;4358;42.100;25.222;2022-10-04T09:32:41;100384.03;;;19.28;58.55
8641;BME280;4358;42.100;25.222;2022-10-04T09:35:52;100387.06;;;19.53;58.09
8641;BME280;4358;42.100;25.222;2022-10-04T09:42:01;100375.72;;;19.86;58.17
8641;BME280;4358;42.100;25.222;2022-10-04T09:47:44;100376.00;;;20.10;58.03
8641;BME280;4358;42.100;25.222;2022-10-04T09:50:35;100386.22;;;20.07;56.69
8641;BME280;4358;42.100;25.222;2022-10-04T09:53:18;100372.44;;;19.92;57.81
8641;BME280;4358;42.100;25.222;2022-10-04T09:56:03;100380.09;;;20.14;56.03
8641;BME280;4358;42.100;25.222;2022-10-04T09:59:03;100382.25;;;20.28;56.60
8641;BME280;4358;42.100;25.222;2022-10-04T10:01:40;100367.13;;;20.00;56.44
8641;BME280;4358;42.100;25.222;2022-10-04T10:04:26;100369.34;;;19.87;56.77
8641;BME280;4358;42.100;25.222;2022-10-04T10:07:32;100381.81;;;19.88;54.33
8641;BME280;4358;42.100;25.222;2022-10-04T10:10:15;100363.81;;;19.88;53.80
8641;BME280;4358;42.100;25.222;2022-10-04T10:13:18;100376.16;;;20.26;52.18
8641;BME280;4358;42.100;25.222;2022-10-04T10:16:25;100352.69;;;20.37;53.11
8641;BME280;4358;42.100;25.222;2022-10-04T10:19:20;100369.72;;;20.19;54.14
8641;BME280;4358;42.100;25.222;2022-10-04T10:22:02;100372.44;;;20.10;54.31
8641;BME280;4358;42.100;25.222;2022-10-04T10:25:00;100376.88;;;20.28;53.86
8641;BME280;4358;42.100;25.222;2022-10-04T10:27:41;100374.81;;;20.58;51.84
8641;BME280;4358;42.100;25.222;2022-10-04T10:30:22;100379.53;;;20.56;52.76
8641;BME280;4358;42.100;25.222;2022-10-04T10:33:17;100376.34;;;20.60;52.54
8641;BME280;4358;42.100;25.222;2022-10-04T10:36:01;100379.81;;;20.70;52.20
8641;BME280;4358;42.100;25.222;2022-10-04T10:38:45;100376.03;;;20.63;52.25
8641;BME280;4358;42.100;25.222;2022-10-04T10:41:32;100376.31;;;20.78;53.51
8641;BME280;4358;42.100;25.222;2022-10-04T10:44:15;100380.03;;;20.42;53.24
8641;BME280;4358;42.100;25.222;2022-10-04T10:46:56;100370.78;;;20.26;53.87
8641;BME280;4358;42.100;25.222;2022-10-04T10:49:40;100372.19;;;20.30;54.22
8641;BME280;4358;42.100;25.222;2022-10-04T10:59:01;100370.59;;;20.10;55.05
8641;BME280;4358;42.100;25.222;2022-10-04T11:04:47;100405.56;;;20.02;54.58
8641;BME280;4358;42.100;25.222;2022-10-04T11:07:52;100387.69;;;20.01;54.75
8641;BME280;4358;42.100;25.222;2022-10-04T11:10:42;100377.78;;;20.19;55.06
8641;BME280;4358;42.100;25.222;2022-10-04T11:13:21;100363.09;;;20.32;54.95
8641;BME280;4358;42.100;25.222;2022-10-04T11:16:16;100393.66;;;20.22;54.06
8641;BME280;4358;42.100;25.222;2022-10-04T11:19:30;100385.22;;;20.35;53.09
8641;BME280;4358;42.100;25.222;2022-10-04T11:22:46;100382.13;;;20.48;52.36
8641;BME280;4358;42.100;25.222;2022-10-04T11:25:54;100377.81;;;20.37;52.92
8641;BME280;4358;42.100;25.222;2022-10-04T11:28:29;100379.56;;;20.64;51.89
8641;BME280;4358;42.100;25.222;2022-10-04T11:31:31;100381.09;;;20.84;52.45
8641;BME280;4358;42.100;25.222;2022-10-04T11:37:10;100380.75;;;20.44;52.40
8641;BME280;4358;42.100;25.222;2022-10-04T11:39:58;100378.78;;;20.18;52.96
8641;BME280;4358;42.100;25.222;2022-10-04T11:42:42;100383.41;;;20.08;53.02
8641;BME280;4358;42.100;25.222;2022-10-04T11:45:25;100392.63;;;20.06;52.80
8641;BME280;4358;42.100;25.222;2022-10-04T11:48:12;100385.69;;;20.03;52.47
8641;BME280;4358;42.100;25.222;2022-10-04T11:50:55;100384.41;;;20.25;52.98
8641;BME280;4358;42.100;25.222;2022-10-04T11:54:02;100375.22;;;20.45;52.41
8641;BME280;4358;42.100;25.222;2022-10-04T11:59:37;100381.72;;;20.78;51.92
8641;BME280;4358;42.100;25.222;2022-10-04T12:08:45;100399.06;;;20.58;52.14
8641;BME280;4358;42.100;25.222;2022-10-04T12:11:28;100404.69;;;20.82;50.06
8641;BME280;4358;42.100;25.222;2022-10-04T12:14:23;100398.16;;;21.10;51.40
8641;BME280;4358;42.100;25.222;2022-10-04T12:20:20;100395.56;;;21.01;50.70
8641;BME280;4358;42.100;25.222;2022-10-04T12:23:33;100404.16;;;21.04;50.54
8641;BME280;4358;42.100;25.222;2022-10-04T12:26:27;100384.63;;;20.85;50.72
8641;BME280;4358;42.100;25.222;2022-10-04T12:29:07;100393.06;;;20.64;51.38
8641;BME280;4358;42.100;25.222;2022-10-04T12:31:43;100389.84;;;20.43;51.61
8641;BME280;4358;42.100;25.222;2022-10-04T12:34:16;100401.31;;;20.45;52.28
8641;BME280;4358;42.100;25.222;2022-10-04T12:36:59;100396.84;;;20.53;52.87
8641;BME280;4358;42.100;25.222;2022-10-04T12:39:38;100388.19;;;20.85;52.49
8641;BME280;4358;42.100;25.222;2022-10-04T12:42:20;100401.25;;;21.16;50.59
8641;BME280;4358;42.100;25.222;2022-10-04T12:45:02;100401.34;;;21.32;49.67
8641;BME280;4358;42.100;25.222;2022-10-04T12:48:01;100395.66;;;21.35;48.65
8641;BME280;4358;42.100;25.222;2022-10-04T12:50:45;100397.06;;;21.47;47.81
8641;BME280;4358;42.100;25.222;2022-10-04T12:53:21;100397.13;;;21.55;47.62
8641;BME280;4358;42.100;25.222;2022-10-04T12:56:15;100398.47;;;21.59;47.87
8641;BME280;4358;42.100;25.222;2022-10-04T12:59:09;100384.09;;;21.50;48.16
8641;BME280;4358;42.100;25.222;2022-10-04T13:01:49;100388.97;;;21.47;48.84
8641;BME280;4358;42.100;25.222;2022-10-04T13:04:28;100390.56;;;21.32;49.82
8641;BME280;4358;42.100;25.222;2022-10-04T13:07:12;100393.22;;;21.24;49.66
8641;BME280;4358;42.100;25.222;2022-10-04T13:09:52;100400.63;;;21.22;48.03
8641;BME280;4358;42.100;25.222;2022-10-04T13:12:33;100390.66;;;21.22;49.16
8641;BME280;4358;42.100;25.222;2022-10-04T13:15:22;100401.69;;;21.11;49.41
8641;BME280;4358;42.100;25.222;2022-10-04T13:17:58;100402.81;;;21.00;49.22
8641;BME280;4358;42.100;25.222;2022-10-04T13:23:23;100407.22;;;20.84;50.63
8641;BME280;4358;42.100;25.222;2022-10-04T13:26:14;100408.06;;;20.84;49.93
8641;BME280;4358;42.100;25.222;2022-10-04T13:28:51;100402.81;;;21.00;50.53
8641;BME280;4358;42.100;25.222;2022-10-04T13:31:26;100398.56;;;21.16;49.66
8641;BME280;4358;42.100;25.222;2022-10-04T13:34:06;100415.19;;;21.11;49.73
8641;BME280;4358;42.100;25.222;2022-10-04T13:36:49;100415.25;;;20.93;49.90
8641;BME280;4358;42.100;25.222;2022-10-04T13:42:27;100418.19;;;20.47;50.54
8641;BME280;4358;42.100;25.222;2022-10-04T13:45:14;100426.25;;;20.47;50.50
8641;BME280;4358;42.100;25.222;2022-10-04T13:48:03;100414.41;;;20.40;50.18
8641;BME280;4358;42.100;25.222;2022-10-04T13:50:44;100424.97;;;20.33;50.33
8641;BME280;4358;42.100;25.222;2022-10-04T13:53:25;100417.50;;;20.17;50.68
8641;BME280;4358;42.100;25.222;2022-10-04T13:56:29;100430.13;;;19.99;51.33
8641;BME280;4358;42.100;25.222;2022-10-04T13:59:08;100425.91;;;19.87;51.92
8641;BME280;4358;42.100;25.222;2022-10-04T14:02:00;100422.91;;;19.90;51.93
8641;BME280;4358;42.100;25.222;2022-10-04T14:08:04;100426.91;;;19.86;52.11
8641;BME280;4358;42.100;25.222;2022-10-04T14:10:57;100434.28;;;19.84;51.78
8641;BME280;4358;42.100;25.222;2022-10-04T14:13:53;100434.59;;;19.81;52.56
8641;BME280;4358;42.100;25.222;2022-10-04T14:16:51;100435.69;;;19.88;51.57
8641;BME280;4358;42.100;25.222;2022-10-04T14:19:45;100432.59;;;19.83;51.43
8641;BME280;4358;42.100;25.222;2022-10-04T14:22:40;100431.19;;;19.79;51.51
8641;BME280;4358;42.100;25.222;2022-10-04T14:25:47;100437.69;;;19.86;51.38
8641;BME280;4358;42.100;25.222;2022-10-04T14:28:35;100438.59;;;19.77;51.70
8641;BME280;4358;42.100;25.222;2022-10-04T14:31:22;100437.19;;;19.73;52.04
8641;BME280;4358;42.100;25.222;2022-10-04T14:34:12;100439.03;;;19.72;51.88
8641;BME280;4358;42.100;25.222;2022-10-04T14:36:58;100441.81;;;19.80;51.82
8641;BME280;4358;42.100;25.222;2022-10-04T14:42:59;100441.16;;;19.96;50.69
8641;BME280;4358;42.100;25.222;2022-10-04T14:45:37;100450.66;;;20.00;49.96
8641;BME280;4358;42.100;25.222;2022-10-04T14:48:29;100451.63;;;20.09;49.87
8641;BME280;4358;42.100;25.222;2022-10-04T14:53:59;100443.53;;;20.09;50.16
8641;BME280;4358;42.100;25.222;2022-10-04T14:56:40;100443.06;;;20.13;50.25
8641;BME280;4358;42.100;25.222;2022-10-04T14:59:23;100452.00;;;20.14;49.70
8641;BME280;4358;42.100;25.222;2022-10-04T15:05:36;100459.09;;;20.15;51.07
8641;BME280;4358;42.100;25.222;2022-10-04T15:08:24;100464.50;;;20.05;51.91
8641;BME280;4358;42.100;25.222;2022-10-04T15:10:58;100458.31;;;19.95;52.30